Time;durP1;ratioP1;P1;durP2;ratioP2;P2;SDS_P1;SDS_P2;PMS_P1;PMS_P2;Temp;Humidity;BMP_temperature;BMP_pressure;BME280_temperature;BME280_humidity;BME280_pressure;Samples;Min_cycle;Max_cycle;Signal;HPM_P1;HPM_P2
2022/09/14 00:01:55;;;;;;;2.25;0.68;;;;;;;13.68;100.00;100567.22;6248882;28;20459;-71
2022/09/14 00:04:57;;;;;;;1.42;1.27;;;;;;;13.62;100.00;100570.25;6249078;28;20501;-71
2022/09/14 00:07:58;;;;;;;1.35;0.93;;;;;;;13.61;100.00;100563.28;6249263;28;20048;-71
2022/09/14 00:11:04;;;;;;;1.33;0.70;;;;;;;13.57;100.00;100556.53;6249121;28;20053;-71
2022/09/14 00:14:06;;;;;;;3.53;1.05;;;;;;;13.50;100.00;100565.84;6248921;28;20492;-72
2022/09/14 00:17:07;;;;;;;4.85;1.20;;;;;;;13.52;100.00;100564.75;6249117;28;20618;-71
2022/09/14 00:20:09;;;;;;;1.92;0.95;;;;;;;13.59;100.00;100558.13;6248743;28;20060;-71
2022/09/14 00:23:10;;;;;;;4.20;1.52;;;;;;;13.62;100.00;100567.63;6249045;28;20049;-71
2022/09/14 00:26:15;;;;;;;1.90;0.98;;;;;;;13.64;100.00;100558.66;6248839;28;20041;-71
2022/09/14 00:29:17;;;;;;;1.13;1.02;;;;;;;13.62;100.00;100543.84;6248944;28;20419;-71
2022/09/14 00:32:18;;;;;;;1.98;1.08;;;;;;;13.59;100.00;100537.00;6248540;28;20513;-71
2022/09/14 00:35:19;;;;;;;1.23;0.93;;;;;;;13.55;100.00;100540.81;6248466;28;20061;-71
2022/09/14 00:38:21;;;;;;;2.60;1.00;;;;;;;13.53;100.00;100549.75;6248457;28;20065;-71
2022/09/14 00:41:26;;;;;;;2.90;0.98;;;;;;;13.53;100.00;100547.97;6248335;28;20083;-71
2022/09/14 00:44:58;;;;;;;2.97;1.23;;;;;;;13.51;100.00;100541.97;6247730;28;20045;-71
2022/09/14 00:47:59;;;;;;;1.83;1.10;;;;;;;13.50;100.00;100535.00;6248658;28;20049;-72
2022/09/14 00:51:01;;;;;;;12.05;1.40;;;;;;;13.44;100.00;100536.28;6248009;28;20049;-72
2022/09/14 00:54:05;;;;;;;1.95;0.90;;;;;;;13.43;100.00;100537.19;6247904;28;20053;-72
2022/09/14 00:57:08;;;;;;;2.85;1.20;;;;;;;13.42;100.00;100530.22;6248132;28;20476;-72
2022/09/14 01:00:12;;;;;;;1.23;1.00;;;;;;;13.42;100.00;100518.84;6246969;28;20053;-72
2022/09/14 01:03:14;;;;;;;2.15;1.10;;;;;;;13.42;100.00;100519.66;6248050;28;20095;-72
2022/09/14 01:06:23;;;;;;;2.13;1.17;;;;;;;13.42;100.00;100522.31;6247657;28;20042;-71
2022/09/14 01:09:31;;;;;;;2.17;1.00;;;;;;;13.40;100.00;100513.66;6247860;28;20065;-72
2022/09/14 01:12:43;;;;;;;3.67;1.20;;;;;;;13.30;100.00;100519.66;6247796;28;20131;-71
2022/09/14 01:15:54;;;;;;;2.42;1.02;;;;;;;13.32;100.00;100523.91;6247354;28;20050;-72
2022/09/14 01:18:58;;;;;;;2.10;1.05;;;;;;;13.33;100.00;100519.47;6247634;28;20049;-72
2022/09/14 01:22:09;;;;;;;1.38;0.88;;;;;;;13.33;100.00;100520.31;6247375;28;20049;-71
2022/09/14 01:25:27;;;;;;;3.60;1.08;;;;;;;13.29;100.00;100521.47;6247333;28;20056;-71
2022/09/14 01:28:37;;;;;;;2.50;0.98;;;;;;;13.32;100.00;100517.78;6247374;28;20469;-72
2022/09/14 01:31:47;;;;;;;5.65;1.40;;;;;;;13.30;100.00;100528.41;6246993;28;20413;-72
2022/09/14 01:34:57;;;;;;;1.60;1.30;;;;;;;13.31;100.00;100524.03;6246981;28;20049;-72
2022/09/14 01:38:03;;;;;;;4.18;1.10;;;;;;;13.29;100.00;100518.81;6247247;28;20389;-72
2022/09/14 01:41:09;;;;;;;1.48;1.15;;;;;;;13.25;100.00;100525.25;6246907;28;20050;-72
2022/09/14 01:44:16;;;;;;;3.35;1.20;;;;;;;13.20;100.00;100524.69;6247019;28;20049;-72
2022/09/14 01:47:25;;;;;;;6.68;1.20;;;;;;;13.16;100.00;100526.69;6247230;28;20404;-72
2022/09/14 01:50:32;;;;;;;1.58;1.10;;;;;;;13.06;100.00;100517.72;6246927;28;20057;-72
2022/09/14 01:53:38;;;;;;;2.05;1.42;;;;;;;13.03;100.00;100517.06;6247153;28;20050;-71
2022/09/14 01:56:44;;;;;;;2.17;1.10;;;;;;;12.95;100.00;100520.25;6247046;28;20052;-72
2022/09/14 01:59:50;;;;;;;2.30;1.10;;;;;;;12.90;100.00;100519.72;6246691;28;20053;-72
2022/09/14 02:02:55;;;;;;;3.15;1.50;;;;;;;12.89;100.00;100510.06;6247145;28;20045;-72
2022/09/14 02:06:00;;;;;;;3.17;1.50;;;;;;;12.88;100.00;100509.22;6246331;28;20489;-72
2022/09/14 02:09:02;;;;;;;2.75;1.58;;;;;;;12.90;100.00;100503.88;6246763;28;20049;-72
2022/09/14 02:12:04;;;;;;;3.83;1.98;;;;;;;12.86;100.00;100505.88;6246169;28;20053;-72
2022/09/14 02:15:10;;;;;;;2.78;1.38;;;;;;;12.80;100.00;100503.63;6246503;28;20049;-72
2022/09/14 02:18:12;;;;;;;1.83;1.33;;;;;;;12.79;100.00;100499.31;6246469;28;20049;-72
2022/09/14 02:21:16;;;;;;;1.52;1.10;;;;;;;12.74;100.00;100493.50;6246456;28;20049;-71
2022/09/14 02:24:18;;;;;;;3.15;1.75;;;;;;;12.69;100.00;100492.97;6246116;28;20075;-71
2022/09/14 02:27:19;;;;;;;6.47;1.98;;;;;;;12.68;100.00;100492.13;6246551;28;20068;-72
2022/09/14 02:30:22;;;;;;;9.88;1.40;;;;;;;12.66;100.00;100490.50;6246191;28;20056;-72
2022/09/14 02:33:34;;;;;;;3.67;1.35;;;;;;;12.63;100.00;100494.22;6246734;28;20507;-72
2022/09/14 02:36:48;;;;;;;3.63;1.42;;;;;;;12.55;100.00;100491.22;6245817;28;20049;-72
2022/09/14 02:39:57;;;;;;;2.70;1.55;;;;;;;12.52;100.00;100494.06;6246264;28;20057;-71
2022/09/14 02:43:03;;;;;;;;;;;;;;;12.53;100.00;100482.56;6246692;28;20057;-72
2022/09/14 02:46:13;;;;;;;6.03;1.38;;;;;;;12.49;100.00;100489.00;6246221;28;19925;-72
2022/09/14 02:49:24;;;;;;;3.60;1.60;;;;;;;12.50;100.00;100493.31;6246013;28;20497;-72
2022/09/14 02:52:32;;;;;;;7.35;1.60;;;;;;;12.53;100.00;100482.56;6246099;28;20132;-72
2022/09/14 02:55:37;;;;;;;1.40;1.30;;;;;;;12.56;100.00;100481.53;6242133;28;20490;-72
2022/09/14 02:58:41;;;;;;;5.13;1.65;;;;;;;12.53;100.00;100482.56;6243135;28;20052;-72
2022/09/14 03:01:44;;;;;;;2.85;1.40;;;;;;;12.50;100.00;100485.41;6239748;28;20050;-72
2022/09/14 03:04:45;;;;;;;5.15;1.58;;;;;;;12.46;100.00;100478.66;6232862;28;20049;-72
2022/09/14 03:07:46;;;;;;;7.45;2.25;;;;;;;12.40;100.00;100472.00;6244393;28;20052;-72
2022/09/14 03:10:48;;;;;;;4.43;1.60;;;;;;;12.39;100.00;100477.34;6244122;28;20045;-72
2022/09/14 03:13:49;;;;;;;5.10;2.20;;;;;;;12.35;100.00;100466.19;6244053;28;20045;-72
2022/09/14 03:16:52;;;;;;;5.88;1.30;;;;;;;12.39;100.00;100459.75;6244486;28;20057;-72
2022/09/14 03:19:53;;;;;;;3.50;1.35;;;;;;;12.37;100.00;100463.44;6245279;28;20061;-72
2022/09/14 03:22:54;;;;;;;2.90;1.48;;;;;;;12.31;100.00;100458.56;6246085;28;20061;-72
2022/09/14 03:25:56;;;;;;;1.80;1.33;;;;;;;12.29;100.00;100463.09;6249899;28;20052;-72
2022/09/14 03:28:59;;;;;;;1.70;1.33;;;;;;;12.29;100.00;100457.81;6250522;28;20099;-71
2022/09/14 03:32:02;;;;;;;2.72;1.48;;;;;;;12.28;100.00;100456.13;6249785;28;20062;-72
2022/09/14 03:35:03;;;;;;;2.65;1.77;;;;;;;12.22;100.00;100452.13;6249740;28;20049;-72
2022/09/14 03:38:05;;;;;;;2.83;1.85;;;;;;;12.23;100.00;100443.28;6249976;28;20045;-72
2022/09/14 03:41:08;;;;;;;2.75;1.88;;;;;;;12.22;100.00;100443.34;6249586;28;20049;-72
2022/09/14 03:44:10;;;;;;;3.40;1.50;;;;;;;12.19;100.00;100433.88;6249523;28;20421;-71
2022/09/14 03:47:12;;;;;;;3.40;1.85;;;;;;;12.22;100.00;100436.31;6249814;28;20053;-72
2022/09/14 03:50:15;;;;;;;3.92;1.85;;;;;;;12.24;100.00;100423.88;6249303;28;20421;-71
2022/09/14 03:53:16;;;;;;;1.73;1.63;;;;;;;12.28;100.00;100429.78;6249689;28;20417;-71
2022/09/14 03:56:20;;;;;;;4.10;2.10;;;;;;;12.32;100.00;100420.75;6249440;28;20060;-72
2022/09/14 03:59:21;;;;;;;5.88;1.95;;;;;;;12.29;100.00;100418.31;6249505;28;20050;-71
2022/09/14 04:02:24;;;;;;;4.50;1.58;;;;;;;12.24;100.00;100420.41;6249352;28;20071;-72
2022/09/14 04:05:26;;;;;;;3.53;1.83;;;;;;;12.21;100.00;100428.50;6249060;28;20536;-72
2022/09/14 04:08:27;;;;;;;4.82;2.10;;;;;;;12.23;100.00;100439.78;6249159;28;20045;-72
2022/09/14 04:11:30;;;;;;;6.65;2.03;;;;;;;12.23;100.00;100439.78;6249029;28;20069;-72
2022/09/14 04:14:31;;;;;;;3.22;1.85;;;;;;;12.20;100.00;100435.56;6248789;28;20077;-72
2022/09/14 04:17:34;;;;;;;2.72;2.00;;;;;;;12.23;100.00;100424.81;6249125;28;20052;-72
2022/09/14 04:20:36;;;;;;;3.17;2.00;;;;;;;12.23;100.00;100416.91;6248838;28;20050;-72
2022/09/14 04:23:37;;;;;;;3.20;2.40;;;;;;;12.21;100.00;100412.69;6249110;28;20049;-72
2022/09/14 04:26:39;;;;;;;2.97;1.80;;;;;;;12.17;100.00;100409.41;6248509;28;20045;-72
2022/09/14 04:29:40;;;;;;;5.80;2.08;;;;;;;12.12;100.00;100422.03;6248695;28;20064;-72
2022/09/14 04:32:43;;;;;;;3.03;1.90;;;;;;;12.10;100.00;100416.03;6248627;28;20120;-72
2022/09/14 04:35:44;;;;;;;4.80;2.15;;;;;;;12.13;100.00;100418.47;6247389;28;20061;-72
2022/09/14 04:38:46;;;;;;;7.35;2.15;;;;;;;12.11;100.00;100426.44;6248710;28;20489;-72
2022/09/14 04:41:47;;;;;;;7.68;2.50;;;;;;;12.14;100.00;100420.16;6248459;28;20062;-72
2022/09/14 04:44:49;;;;;;;7.93;1.98;;;;;;;12.14;100.00;100421.00;6248249;28;20052;-71
2022/09/14 04:47:51;;;;;;;6.95;2.53;;;;;;;12.11;100.00;100428.25;6248191;28;20046;-71
2022/09/14 04:50:53;;;;;;;5.47;2.25;;;;;;;12.06;100.00;100425.06;6248163;28;20049;-71
2022/09/14 04:53:56;;;;;;;6.35;2.40;;;;;;;12.03;100.00;100430.53;6247705;28;20092;-70
2022/09/14 04:56:58;;;;;;;5.60;2.20;;;;;;;12.03;100.00;100420.00;6248403;28;20124;-71
2022/09/14 04:59:59;;;;;;;6.88;3.53;;;;;;;11.98;100.00;100425.56;6247614;28;20060;-71
2022/09/14 05:03:02;;;;;;;3.05;1.90;;;;;;;11.98;100.00;100427.34;6248297;28;20057;-71
2022/09/14 05:06:04;;;;;;;2.90;2.35;;;;;;;11.96;100.00;100418.72;6247502;28;20049;-71
2022/09/14 05:09:07;;;;;;;7.97;2.53;;;;;;;11.91;100.00;100419.00;6247922;28;20045;-71
2022/09/14 05:12:08;;;;;;;4.47;2.25;;;;;;;11.92;100.00;100428.59;6247318;28;20560;-71
2022/09/14 05:15:10;;;;;;;7.22;2.38;;;;;;;11.95;100.00;100425.78;6247752;28;20045;-71
2022/09/14 05:18:13;;;;;;;3.80;2.08;;;;;;;11.98;100.00;100430.81;6247537;28;20095;-71
2022/09/14 05:21:16;;;;;;;5.45;2.28;;;;;;;11.98;100.00;100435.25;6247208;28;20471;-71
2022/09/14 05:24:18;;;;;;;8.45;2.42;;;;;;;12.00;100.00;100426.31;6247254;28;20057;-71
2022/09/14 05:27:19;;;;;;;6.38;2.85;;;;;;;12.07;100.00;100419.69;6247500;28;20052;-71
2022/09/14 05:30:21;;;;;;;6.70;2.75;;;;;;;12.11;100.00;100421.19;6247125;28;20057;-71
2022/09/14 05:33:24;;;;;;;4.43;2.00;;;;;;;12.14;100.00;100418.38;6247239;28;20057;-71
2022/09/14 05:36:26;;;;;;;5.28;1.90;;;;;;;12.17;100.00;100433.09;6247125;28;20053;-71
2022/09/14 05:39:27;;;;;;;4.50;2.28;;;;;;;12.20;100.00;100430.28;6246897;28;20049;-71
2022/09/14 05:42:28;;;;;;;3.45;2.20;;;;;;;12.24;100.00;100418.59;6246804;28;20049;-70
2022/09/14 05:45:30;;;;;;;5.93;2.85;;;;;;;12.26;100.00;100424.59;6246658;28;20053;-71
2022/09/14 05:48:33;;;;;;;4.43;2.53;;;;;;;12.27;100.00;100415.78;6246928;28;20079;-71
2022/09/14 05:51:34;;;;;;;4.72;1.90;;;;;;;12.34;100.00;100417.03;6246482;28;20412;-70
2022/09/14 05:54:36;;;;;;;5.00;2.22;;;;;;;12.41;100.00;100406.97;6246612;28;20049;-71
2022/09/14 05:57:37;;;;;;;5.50;2.35;;;;;;;12.44;100.00;100414.63;6246907;28;20412;-71
2022/09/14 06:00:39;;;;;;;5.22;2.55;;;;;;;12.48;100.00;100412.66;6246498;28;20045;-71
2022/09/14 06:03:42;;;;;;;4.30;2.80;;;;;;;12.52;100.00;100420.25;6246908;28;20049;-71
2022/09/14 06:06:44;;;;;;;8.82;2.90;;;;;;;12.54;100.00;100415.75;6246721;28;20058;-71
2022/09/14 06:09:45;;;;;;;6.05;3.95;;;;;;;12.56;100.00;100413.00;6246412;28;20045;-71
2022/09/14 06:12:46;;;;;;;5.65;2.60;;;;;;;12.61;100.00;100413.53;6246659;28;20056;-71
2022/09/14 06:15:48;;;;;;;6.53;3.40;;;;;;;12.63;100.00;100423.03;6246546;28;20049;-71
2022/09/14 06:18:50;;;;;;;4.32;2.90;;;;;;;12.64;100.00;100414.16;6246468;28;20050;-71
2022/09/14 06:21:52;;;;;;;5.20;2.42;;;;;;;12.72;100.00;100407.50;6246305;28;20057;-70
2022/09/14 06:24:53;;;;;;;4.85;2.40;;;;;;;12.75;100.00;100404.69;6246468;28;20057;-71
2022/09/14 06:27:55;;;;;;;5.68;2.85;;;;;;;12.72;100.00;100405.75;6246445;28;20050;-71
2022/09/14 06:30:57;;;;;;;4.30;2.83;;;;;;;12.74;100.00;100403.00;6246207;28;20053;-71
2022/09/14 06:33:59;;;;;;;4.93;2.88;;;;;;;12.76;100.00;100398.44;6245885;28;20041;-71
2022/09/14 06:37:01;;;;;;;6.55;2.65;;;;;;;12.81;100.00;100402.50;6246467;28;20057;-71
2022/09/14 06:40:03;;;;;;;8.45;2.78;;;;;;;12.89;100.00;100397.50;6245750;28;20053;-71
2022/09/14 06:43:04;;;;;;;4.93;2.70;;;;;;;12.91;100.00;100392.16;6246265;28;20049;-70
2022/09/14 06:46:07;;;;;;;3.80;2.38;;;;;;;12.99;100.00;100391.59;6245822;28;20060;-71
2022/09/14 06:49:12;;;;;;;5.88;2.90;;;;;;;13.05;100.00;100391.19;6245988;28;20053;-71
2022/09/14 06:52:13;;;;;;;3.75;2.55;;;;;;;13.06;100.00;100377.06;6245883;28;20052;-71
2022/09/14 06:55:15;;;;;;;4.80;2.70;;;;;;;13.13;100.00;100378.31;6246026;28;20508;-71
2022/09/14 06:58:16;;;;;;;7.05;3.83;;;;;;;13.17;100.00;100388.56;6246266;28;20052;-71
2022/09/14 07:01:19;;;;;;;3.22;2.45;;;;;;;13.17;100.00;100388.56;6250132;28;20421;-71
2022/09/14 07:04:23;;;;;;;4.10;2.08;;;;;;;13.19;100.00;100381.38;6250170;28;20102;-71
2022/09/14 07:07:25;;;;;;;6.55;2.30;;;;;;;13.22;100.00;100388.28;6248661;28;20424;-71
2022/09/14 07:10:27;;;;;;;3.40;1.92;;;;;;;13.21;100.00;100390.00;6247453;28;20056;-71
2022/09/14 07:13:29;;;;;;;5.90;2.40;;;;;;;13.27;100.00;100401.13;6250079;28;20049;-71
2022/09/14 07:16:33;;;;;;;5.03;2.50;;;;;;;13.35;100.00;100396.13;6250244;28;20042;-71
2022/09/14 07:19:35;;;;;;;4.85;1.90;;;;;;;13.43;100.00;100407.84;6249694;28;20094;-71
2022/09/14 07:22:37;;;;;;;7.78;2.13;;;;;;;13.45;100.00;100413.88;6249790;28;20501;-71
2022/09/14 07:25:39;;;;;;;3.38;2.45;;;;;;;13.51;100.00;100406.47;6249810;28;20425;-71
2022/09/14 07:28:41;;;;;;;4.10;2.78;;;;;;;13.60;100.00;100406.66;6250033;28;20041;-71
2022/09/14 07:31:44;;;;;;;3.60;2.17;;;;;;;13.75;100.00;100401.22;6250151;28;20042;-71
2022/09/14 07:34:47;;;;;;;6.25;2.20;;;;;;;13.80;100.00;100389.38;6249366;28;20409;-71
2022/09/14 07:37:49;;;;;;;4.93;2.35;;;;;;;13.87;100.00;100385.34;6249665;28;20519;-71
2022/09/14 07:40:50;;;;;;;3.38;2.28;;;;;;;13.89;100.00;100375.50;6249855;28;20045;-71
2022/09/14 07:43:53;;;;;;;4.05;2.25;;;;;;;13.93;100.00;100389.31;6249327;28;20053;-71
2022/09/14 07:46:54;;;;;;;6.28;2.08;;;;;;;14.01;100.00;100389.63;6249799;28;20057;-71
2022/09/14 07:49:57;;;;;;;6.60;2.63;;;;;;;14.06;100.00;100391.91;6249531;28;20520;-71
2022/09/14 07:52:58;;;;;;;5.75;2.33;;;;;;;14.10;100.00;100399.50;6249974;28;20074;-72
2022/09/14 07:56:00;;;;;;;5.82;1.90;;;;;;;14.19;100.00;100388.25;6249279;28;20408;-72
2022/09/14 07:59:04;;;;;;;7.63;2.38;;;;;;;14.27;100.00;100386.84;6249417;28;20136;-72
2022/09/14 08:02:07;;;;;;;5.22;2.53;;;;;;;14.35;100.00;100384.47;6249206;28;20049;-71
2022/09/14 08:05:10;;;;;;;5.93;2.60;;;;;;;14.37;100.00;100393.97;6249006;28;20073;-72
2022/09/14 08:08:11;;;;;;;2.50;1.83;;;;;;;14.41;100.00;100384.03;6249341;28;20497;-71
2022/09/14 08:11:14;;;;;;;5.65;2.03;;;;;;;14.48;100.00;100369.41;6248798;28;20056;-71
2022/09/14 08:14:15;;;;;;;4.35;2.45;;;;;;;14.50;100.00;100379.88;6248880;28;20493;-71
2022/09/14 08:17:17;;;;;;;7.30;2.63;;;;;;;14.55;100.00;100383.00;6249054;28;20057;-71
2022/09/14 08:20:20;;;;;;;3.95;2.40;;;;;;;14.62;100.00;100376.28;6248481;28;20046;-71
2022/09/14 08:23:21;;;;;;;3.33;2.25;;;;;;;14.71;100.00;100370.28;6249064;28;20049;-71
2022/09/14 08:26:24;;;;;;;3.35;1.80;;;;;;;14.77;100.00;100377.78;6248478;28;20049;-71
2022/09/14 08:29:26;;;;;;;4.10;2.10;;;;;;;14.83;100.00;100377.28;6248840;28;20083;-71
2022/09/14 08:32:27;;;;;;;3.90;1.50;;;;;;;14.86;100.00;100369.13;6248644;28;20054;-71
2022/09/14 08:35:30;;;;;;;2.78;1.42;;;;;;;14.92;100.00;100384.50;6248362;28;20056;-71
2022/09/14 08:38:31;;;;;;;2.63;1.13;;;;;;;14.97;100.00;100378.88;6248604;28;20046;-72
2022/09/14 08:41:37;;;;;;;2.47;1.52;;;;;;;15.05;100.00;100383.56;6248366;28;20053;-71
2022/09/14 08:44:42;;;;;;;4.28;1.17;;;;;;;15.12;100.00;100390.91;6248399;28;20057;-71
2022/09/14 08:47:44;;;;;;;4.32;1.45;;;;;;;15.16;100.00;100388.84;6248620;28;20054;-71
2022/09/14 08:50:46;;;;;;;1.95;1.33;;;;;;;15.21;100.00;100384.03;6247971;28;20063;-72
2022/09/14 08:53:51;;;;;;;1.95;1.30;;;;;;;15.28;100.00;100376.47;6244034;28;20050;-74
2022/09/14 08:57:00;;;;;;;3.65;1.67;;;;;;;15.23;100.00;100369.75;6234219;28;20056;-74
2022/09/14 09:00:09;;;;;;;2.63;1.55;;;;;;;15.30;100.00;100378.03;6223107;28;20095;-74
2022/09/14 09:03:20;;;;;;;;;;;;;;;15.36;100.00;100377.56;6223880;28;20533;-74
2022/09/14 09:06:29;;;;;;;1.77;1.33;;;;;;;15.43;100.00;100375.25;6223467;28;19925;-74
2022/09/14 09:09:41;;;;;;;5.43;1.55;;;;;;;15.47;100.00;100376.69;6223259;28;20057;-73
2022/09/14 09:12:47;;;;;;;3.55;1.20;;;;;;;15.53;100.00;100373.53;6235105;28;20501;-74
2022/09/14 09:15:51;;;;;;;3.47;1.60;;;;;;;15.57;100.00;100369.69;6241812;28;20045;-74
2022/09/14 09:19:01;;;;;;;2.58;1.80;;;;;;;15.61;100.00;100367.66;6240133;28;20421;-74
2022/09/14 09:22:12;;;;;;;3.30;1.52;;;;;;;15.68;100.00;100356.47;6247086;28;20049;-73
2022/09/14 09:25:22;;;;;;;3.13;1.52;;;;;;;15.79;100.00;100347.63;6247958;28;20049;-73
2022/09/14 09:28:25;;;;;;;3.75;1.50;;;;;;;15.87;100.00;100355.81;6249812;28;20045;-72
2022/09/14 09:31:32;;;;;;;5.05;1.15;;;;;;;15.94;100.00;100354.34;6245013;28;20088;-78
2022/09/14 09:34:35;;;;;;;4.85;1.15;;;;;;;15.98;100.00;100354.91;6243014;28;20049;-73
2022/09/14 09:37:39;;;;;;;1.88;1.38;;;;;;;15.99;100.00;100361.94;6242656;28;20135;-73
2022/09/14 09:40:45;;;;;;;4.72;1.40;;;;;;;16.05;100.00;100360.56;6243095;28;20508;-74
2022/09/14 09:43:59;;;;;;;2.72;1.30;;;;;;;16.03;100.00;100354.53;6246867;28;20041;-73
2022/09/14 09:47:01;;;;;;;2.95;1.58;;;;;;;16.12;100.00;100359.09;6247588;28;20092;-73
2022/09/14 09:50:06;;;;;;;1.52;1.13;;;;;;;16.20;100.00;100364.59;6246664;28;20049;-73
2022/09/14 09:53:16;;;;;;;1.90;1.13;;;;;;;16.22;100.00;100360.03;6247644;28;20054;-73
2022/09/14 09:56:20;;;;;;;4.72;1.27;;;;;;;16.22;100.00;100360.88;6246751;28;20056;-73
2022/09/14 09:59:28;;;;;;;2.85;1.25;;;;;;;16.27;100.00;100352.53;6246830;28;20052;-74
2022/09/14 10:02:31;;;;;;;5.95;0.90;;;;;;;16.35;100.00;100338.59;6246661;28;20060;-73
2022/09/14 10:05:33;;;;;;;0.95;0.82;;;;;;;16.35;100.00;100325.34;6246614;28;20049;-73
2022/09/14 10:08:41;;;;;;;1.33;0.43;;;;;;;16.28;98.12;100318.91;6247651;28;20046;-74
2022/09/14 10:11:44;;;;;;;2.92;0.88;;;;;;;16.30;97.66;100330.19;6246678;28;20065;-73
2022/09/14 10:14:47;;;;;;;2.28;0.57;;;;;;;16.34;97.39;100321.03;6246369;28;20135;-73
2022/09/14 10:18:08;;;;;;;3.13;1.10;;;;;;;16.38;94.50;100323.28;6246884;28;20046;-73
2022/09/14 10:21:09;;;;;;;1.08;0.57;;;;;;;16.39;95.84;100310.84;6246269;28;20049;-73
2022/09/14 10:24:19;;;;;;;2.92;0.40;;;;;;;16.46;96.90;100320.00;6246242;28;20045;-73
2022/09/14 10:27:38;;;;;;;1.55;0.60;;;;;;;16.55;97.82;100311.25;6247116;28;20049;-73
2022/09/14 10:30:49;;;;;;;4.90;0.50;;;;;;;16.61;93.92;100317.84;6246577;28;20119;-73
2022/09/14 10:33:54;;;;;;;5.70;0.90;;;;;;;16.57;95.01;100316.41;6247552;28;20778;-73
2022/09/14 10:37:09;;;;;;;1.33;0.40;;;;;;;16.58;95.88;100316.31;6251665;28;20061;-73
2022/09/14 10:40:16;;;;;;;3.15;0.60;;;;;;;16.65;95.34;100328.06;6251261;28;20053;-73
2022/09/14 10:43:28;;;;;;;3.80;0.88;;;;;;;16.77;94.93;100317.41;6251443;28;20061;-73
2022/09/14 10:46:37;;;;;;;2.55;0.47;;;;;;;16.83;95.02;100306.25;6251086;28;20107;-73
2022/09/14 10:49:51;;;;;;;0.93;0.70;;;;;;;16.84;92.95;100307.94;6251108;28;20045;-73
2022/09/14 10:53:03;;;;;;;0.65;0.40;;;;;;;16.84;89.87;100306.09;6251164;28;20053;-73
2022/09/14 10:56:12;;;;;;;4.60;0.50;;;;;;;16.83;90.25;100295.63;6250731;28;20060;-73
2022/09/14 10:59:25;;;;;;;5.97;0.70;;;;;;;16.89;89.59;100301.25;6251141;28;20056;-73
2022/09/14 11:02:54;;;;;;;1.92;0.63;;;;;;;16.87;90.35;100295.25;6252270;28;20060;-73
2022/09/14 11:06:07;;;;;;;2.38;0.45;;;;;;;16.88;89.74;100296.91;6236934;28;20056;-73
2022/09/14 11:09:20;;;;;;;2.60;0.43;;;;;;;16.92;90.78;100297.50;6250802;28;20062;-73
2022/09/14 11:12:31;;;;;;;2.22;0.40;;;;;;;16.97;90.96;100300.59;6243872;28;20089;-73
2022/09/14 11:15:37;;;;;;;2.65;0.50;;;;;;;17.02;90.59;100300.19;6250348;28;20049;-73
2022/09/14 11:18:50;;;;;;;0.70;0.32;;;;;;;17.05;89.22;100292.78;6250008;28;20048;-72
2022/09/14 11:22:00;;;;;;;1.70;0.40;;;;;;;17.05;88.78;100294.63;6247366;28;20045;-72
2022/09/14 11:25:09;;;;;;;1.55;0.35;;;;;;;17.12;88.88;100291.28;6250116;28;20056;-72
2022/09/14 11:28:16;;;;;;;1.70;0.47;;;;;;;17.15;89.22;100296.31;6250183;28;20080;-73
2022/09/14 11:31:21;;;;;;;1.05;0.43;;;;;;;17.25;84.32;100291.03;6246799;28;20312;-72
2022/09/14 11:34:28;;;;;;;1.00;0.20;;;;;;;17.24;86.10;100292.00;6250044;28;20061;-73
2022/09/14 11:37:36;;;;;;;1.17;0.77;;;;;;;17.28;84.65;100290.75;6249479;28;20050;-73
2022/09/14 11:40:43;;;;;;;1.17;0.30;;;;;;;17.29;85.72;100303.06;6250190;28;20053;-73
2022/09/14 11:43:52;;;;;;;1.90;0.50;;;;;;;17.37;85.24;100297.91;6248784;28;20060;-72
2022/09/14 11:46:57;;;;;;;6.05;0.60;;;;;;;17.36;80.76;100298.91;6246345;28;20071;-72
2022/09/14 11:50:05;;;;;;;3.35;0.50;;;;;;;17.36;81.40;100292.75;6248552;28;20048;-72
2022/09/14 11:53:12;;;;;;;3.33;0.80;;;;;;;17.37;82.70;100295.25;6249882;28;20057;-71
2022/09/14 11:56:25;;;;;;;2.35;0.70;;;;;;;17.40;83.13;100287.03;6236017;28;20100;-81
2022/09/14 11:59:47;;;;;;;1.27;0.50;;;;;;;17.47;84.46;100285.47;6225139;28;20184;-71
2022/09/14 12:02:59;;;;;;;3.17;0.57;;;;;;;17.53;83.07;100296.53;6224996;28;20054;-70
2022/09/14 12:06:39;;;;;;;3.65;0.80;;;;;;;17.54;82.35;100283.13;6235544;28;20413;-71
2022/09/14 12:09:44;;;;;;;0.50;0.32;;;;;;;17.60;80.36;100287.03;6224716;28;20053;-70
2022/09/14 12:12:48;;;;;;;1.05;0.40;;;;;;;17.60;80.32;100287.88;6224878;28;20050;-71
2022/09/14 12:16:01;;;;;;;2.40;0.28;;;;;;;17.57;80.37;100290.81;6237030;28;20493;-71
2022/09/14 12:19:03;;;;;;;0.82;0.43;;;;;;;17.49;79.80;100290.69;6249758;28;20049;-72
2022/09/14 12:22:26;;;;;;;1.65;0.52;;;;;;;17.47;81.00;100292.63;6248715;28;20056;-71
2022/09/14 12:25:28;;;;;;;0.30;0.30;;;;;;;17.47;81.57;100293.44;6248623;28;20056;-71
2022/09/14 12:28:42;;;;;;;1.13;0.43;;;;;;;17.49;82.41;100285.38;6249109;28;20520;-71
2022/09/14 12:32:05;;;;;;;0.50;0.32;;;;;;;17.50;82.79;100290.53;6248575;28;20056;-72
2022/09/14 12:35:35;;;;;;;5.25;0.60;;;;;;;17.51;81.32;100283.41;6248475;28;20158;-72
2022/09/14 12:39:19;;;;;;;2.92;1.17;;;;;;;17.50;81.54;100290.53;6248507;28;20053;-72
2022/09/14 12:42:28;;;;;;;0.30;0.30;;;;;;;17.55;81.86;100281.31;6237009;28;20532;-71
2022/09/14 12:45:50;;;;;;;4.35;0.50;;;;;;;17.54;78.94;100287.59;6248368;28;20061;-74
2022/09/14 12:48:57;;;;;;;3.25;0.40;;;;;;;17.51;78.27;100286.06;6255114;28;20050;-81
2022/09/14 12:52:08;;;;;;;4.50;0.60;;;;;;;17.49;77.04;100275.56;6249330;28;20049;-71
2022/09/14 12:55:39;;;;;;;1.45;0.50;;;;;;;17.49;77.55;100275.56;6247790;28;20519;-71
2022/09/14 12:58:59;;;;;;;1.75;0.85;;;;;;;17.48;77.65;100265.06;6247446;28;20053;-72
2022/09/14 13:02:19;;;;;;;1.77;0.50;;;;;;;17.54;78.30;100266.34;6246858;28;20053;-70
2022/09/14 13:05:24;;;;;;;3.20;0.50;;;;;;;17.55;78.71;100260.88;6247774;28;20060;-71
2022/09/14 13:08:25;;;;;;;0.88;0.47;;;;;;;17.58;78.68;100267.75;6247965;28;20053;-72
2022/09/14 13:11:32;;;;;;;6.65;1.65;;;;;;;17.62;77.77;100261.16;6247554;28;20060;-71
2022/09/14 13:14:44;;;;;;;1.40;0.60;;;;;;;17.59;76.50;100256.97;6248276;28;20486;-71
2022/09/14 13:17:57;;;;;;;4.35;0.68;;;;;;;17.72;75.86;100262.88;6247995;28;20057;-72
2022/09/14 13:21:00;;;;;;;3.47;0.70;;;;;;;17.66;75.81;100247.47;6247597;28;20081;-72
2022/09/14 13:24:01;;;;;;;5.13;0.70;;;;;;;17.67;76.32;100241.19;6247660;28;20057;-71
2022/09/14 13:27:04;;;;;;;0.50;0.40;;;;;;;17.67;76.56;100235.88;6247857;28;20563;-71
2022/09/14 13:30:19;;;;;;;1.15;0.50;;;;;;;17.70;77.02;100224.09;6247114;28;20055;-71
2022/09/14 13:33:21;;;;;;;0.47;0.40;;;;;;;17.73;77.42;100234.47;6247955;28;20049;-71
2022/09/14 13:36:26;;;;;;;0.93;0.40;;;;;;;17.75;75.91;100228.03;6247137;28;20057;-71
2022/09/14 13:39:30;;;;;;;2.78;0.60;;;;;;;17.70;75.46;100222.28;6247598;28;20046;-71
2022/09/14 13:42:31;;;;;;;0.95;0.40;;;;;;;17.70;76.03;100214.31;6246803;28;20441;-71
2022/09/14 13:45:35;;;;;;;2.00;0.50;;;;;;;17.70;77.00;100216.13;6247040;28;20061;-71
2022/09/14 13:48:39;;;;;;;5.13;0.88;;;;;;;17.67;76.30;100211.13;6247222;28;20164;-71
2022/09/14 13:51:41;;;;;;;1.33;0.50;;;;;;;17.68;76.10;100207.47;6246607;28;20572;-71
2022/09/14 13:54:42;;;;;;;0.70;0.30;;;;;;;17.68;77.39;100204.81;6245749;28;20056;-71
2022/09/14 13:58:05;;;;;;;2.50;0.57;;;;;;;17.72;77.70;100198.25;6246664;28;20057;-72
2022/09/14 14:01:08;;;;;;;0.40;0.30;;;;;;;17.71;75.11;100201.84;6246640;28;20091;-71
2022/09/14 14:04:25;;;;;;;2.08;0.70;;;;;;;17.67;74.35;100195.19;6246320;28;20437;-72
2022/09/14 14:07:31;;;;;;;2.85;0.70;;;;;;;17.66;73.96;100183.69;6246393;28;20508;-72
2022/09/14 14:10:36;;;;;;;1.63;0.35;;;;;;;17.69;75.14;100190.53;6246173;28;20053;-72
2022/09/14 14:13:38;;;;;;;1.33;0.93;;;;;;;17.71;74.21;100191.22;6246955;28;20046;-72
2022/09/14 14:16:41;;;;;;;0.65;0.40;;;;;;;17.74;75.83;100183.84;6246191;28;20054;-72